KHRO/HRO METAR and TAF weather

Enter ICAO airport designator
Station Type Date Time Source
KHRO METAR 2019/04/22 19:53 UTC NOAA

KHRO 221953Z AUTO 18010KT 10SM CLR 28/13 A3002 RMK AO2 SLP150 T02780133 TSNO


Station Type Date Time Source
KHRO Decoded METAR 2019/04/22 19:53 UTC NOAA

HARRISON BOONE COUNTY AIRPORT , AR, United States (KHRO) 36-16N 093-09W 417M
Apr 22, 2019 - 03:53 PM EDT / 2019.04.22 1953 UTC
Wind: from the S (180 degrees) at 12 MPH (10 KT):0
Visibility: 10 mile(s):0
Sky conditions: clear
Temperature: 82.0 F (27.8 C)
Dew Point: 55.9 F (13.3 C)
Relative Humidity: 40%
Pressure (altimeter): 30.02 in. Hg (1016 hPa)
ob: KHRO 221953Z AUTO 18010KT 10SM CLR 28/13 A3002 RMK AO2 SLP150 T02780133 TSNO
cycle: 20

Station Type Date Time Source
KHRO TAF 2019/04/22 18:30 UTC NOAA

TAF KHRO 221728Z 2218/2318 18014G23KT P6SM FEW050 SCT100
FM230000 VRB05KT P6SM SCT050 OVC100
FM231100 20008KT P6SM VCSH BKN020 OVC050

Example: see airport list